createdAt,value
2022-09-11T00:02:22.879Z,15.5
2022-09-11T00:04:49.000Z,15.5
2022-09-11T00:07:15.124Z,15.5
2022-09-11T00:09:41.168Z,15.5
2022-09-11T00:12:07.263Z,15.5
2022-09-11T00:14:33.359Z,15.5
2022-09-11T00:16:59.459Z,15.5
2022-09-11T00:19:25.565Z,15.5
2022-09-11T00:21:51.634Z,15.6
2022-09-11T00:24:17.738Z,15.5
2022-09-11T00:26:43.855Z,15.5
2022-09-11T00:29:09.932Z,15.5
2022-09-11T00:31:36.092Z,15.6
2022-09-11T00:34:01.127Z,15.6
2022-09-11T00:36:27.238Z,15.6
2022-09-11T00:38:53.333Z,15.6
2022-09-11T00:41:19.432Z,15.5
2022-09-11T00:43:45.505Z,15.6
2022-09-11T00:46:11.607Z,15.6
2022-09-11T00:48:37.708Z,15.6
2022-09-11T00:51:03.787Z,15.5
2022-09-11T00:53:29.885Z,15.5
2022-09-11T00:55:55.979Z,15.6
2022-09-11T00:58:22.089Z,15.5
2022-09-11T01:00:48.339Z,15.5
2022-09-11T01:03:14.264Z,15.5
2022-09-11T01:05:39.384Z,15.5
2022-09-11T01:08:05.483Z,15.5
2022-09-11T01:10:31.584Z,15.5
2022-09-11T01:12:57.682Z,15.5
2022-09-11T01:15:23.779Z,15.5
2022-09-11T01:17:49.854Z,15.5
2022-09-11T01:20:15.013Z,15.6
2022-09-11T01:22:41.086Z,15.6
2022-09-11T01:25:07.154Z,15.6
2022-09-11T01:27:33.271Z,15.7
2022-09-11T01:29:59.363Z,15.7
2022-09-11T01:32:25.458Z,15.7
2022-09-11T01:34:51.555Z,15.7
2022-09-11T01:37:17.628Z,15.7
2022-09-11T01:39:43.740Z,15.7
2022-09-11T01:42:09.830Z,15.7
2022-09-11T01:44:35.917Z,15.8
2022-09-11T01:47:02.013Z,15.8
2022-09-11T01:49:28.106Z,15.8
2022-09-11T01:51:53.223Z,15.9
2022-09-11T01:54:19.373Z,15.9
2022-09-11T01:56:45.422Z,15.9
2022-09-11T01:59:11.490Z,15.9
2022-09-11T02:01:37.594Z,15.9
2022-09-11T02:04:03.695Z,16
2022-09-11T02:06:29.882Z,16
2022-09-11T02:08:55.867Z,15.9
2022-09-11T02:11:21.985Z,15.9
2022-09-11T02:13:48.060Z,15.9
2022-09-11T02:16:14.203Z,15.9
2022-09-11T02:18:40.263Z,15.9
2022-09-11T02:21:06.344Z,15.9
2022-09-11T02:23:31.505Z,15.9
2022-09-11T02:25:57.560Z,15.9
2022-09-11T02:28:23.639Z,15.9
2022-09-11T02:30:49.752Z,15.9
2022-09-11T02:33:15.838Z,15.9
2022-09-11T02:35:41.922Z,15.9
2022-09-11T02:38:08.029Z,15.9
2022-09-11T02:40:34.134Z,15.9
2022-09-11T02:43:00.214Z,15.9
2022-09-11T02:45:26.310Z,16
2022-09-11T02:47:52.409Z,16
2022-09-11T02:50:18.495Z,16
2022-09-11T02:52:44.593Z,16.1
2022-09-11T02:55:09.710Z,16.1
2022-09-11T02:57:35.800Z,16.1
2022-09-11T03:00:01.892Z,16.2
2022-09-11T03:02:28.000Z,16.2
2022-09-11T03:04:54.068Z,16.2
2022-09-11T03:07:20.171Z,16.2
2022-09-11T03:09:46.260Z,16.2
2022-09-11T03:12:12.357Z,16.2
2022-09-11T03:14:38.442Z,16.2
2022-09-11T03:17:04.571Z,16.2
2022-09-11T03:19:30.665Z,16.2
2022-09-11T03:21:56.740Z,16.2
2022-09-11T03:24:22.841Z,16.2
2022-09-11T03:26:47.932Z,16.2
2022-09-11T03:29:14.038Z,16.2
2022-09-11T03:31:40.139Z,16.2
2022-09-11T03:34:06.226Z,16.2
2022-09-11T03:36:32.321Z,16.2
2022-09-11T03:38:58.418Z,16.2
2022-09-11T03:41:24.511Z,16.3
2022-09-11T03:43:50.601Z,16.2
2022-09-11T03:46:16.690Z,16.2
2022-09-11T03:48:42.795Z,16.3
2022-09-11T03:51:08.892Z,16.3
2022-09-11T03:53:34.981Z,16.3
2022-09-11T03:56:01.082Z,16.3
2022-09-11T03:58:26.184Z,16.2
2022-09-11T04:00:52.293Z,16.3
2022-09-11T04:03:18.387Z,16.2
2022-09-11T04:05:44.482Z,16.2
2022-09-11T04:08:10.559Z,16.2
2022-09-11T04:10:36.670Z,16.2
2022-09-11T04:13:02.754Z,16.2
2022-09-11T04:15:28.859Z,16.2
2022-09-11T04:17:54.945Z,16.2
2022-09-11T04:20:21.040Z,16.2
2022-09-11T04:22:47.143Z,16.3
2022-09-11T04:25:13.230Z,16.2
2022-09-11T04:27:39.323Z,16.2
2022-09-11T04:30:04.433Z,16.2
2022-09-11T04:32:30.538Z,16.2
2022-09-11T04:34:56.620Z,16.2
2022-09-11T04:37:22.743Z,16.2
2022-09-11T04:39:48.808Z,16.2
2022-09-11T04:42:14.919Z,16.3
2022-09-11T04:44:41.044Z,16.2
2022-09-11T04:47:07.094Z,16.3
2022-09-11T04:49:33.207Z,16.2
2022-09-11T04:51:59.287Z,16.3
2022-09-11T04:54:25.380Z,16.3
2022-09-11T04:56:51.484Z,16.3
2022-09-11T04:59:17.579Z,16.3
2022-09-11T05:01:42.693Z,16.3
2022-09-11T05:04:08.777Z,16.3
2022-09-11T05:06:34.876Z,16.3
2022-09-11T05:09:00.965Z,16.3
2022-09-11T05:11:27.052Z,16.3
2022-09-11T05:13:53.162Z,16.3
2022-09-11T05:16:19.265Z,16.3
2022-09-11T05:18:45.347Z,16.3
2022-09-11T05:21:11.434Z,16.3
2022-09-11T05:23:37.568Z,16.3
2022-09-11T05:26:03.619Z,16.4
2022-09-11T05:28:29.723Z,16.4
2022-09-11T05:30:55.808Z,16.4
2022-09-11T05:33:20.923Z,16.4
2022-09-11T05:35:47.025Z,16.4
2022-09-11T05:38:13.113Z,16.5
2022-09-11T05:40:39.251Z,16.5
2022-09-11T05:43:05.313Z,16.5
2022-09-11T05:45:31.418Z,16.5
2022-09-11T05:47:57.483Z,16.6
2022-09-11T05:50:23.578Z,16.6
2022-09-11T05:52:49.674Z,16.6
2022-09-11T05:55:15.778Z,16.6
2022-09-11T05:57:41.874Z,16.6
2022-09-11T06:00:08.058Z,16.6
2022-09-11T06:02:34.063Z,16.6
2022-09-11T06:04:59.175Z,16.6
2022-09-11T06:07:25.261Z,16.6
2022-09-11T06:09:51.349Z,16.6
2022-09-11T06:12:17.455Z,16.6
2022-09-11T06:14:43.542Z,16.6
2022-09-11T06:17:09.663Z,16.6
2022-09-11T06:19:35.733Z,16.6
2022-09-11T06:22:01.828Z,16.6
2022-09-11T06:24:27.925Z,16.6
2022-09-11T06:26:54.024Z,16.7
2022-09-11T06:29:20.129Z,16.7
2022-09-11T06:31:46.256Z,16.6
2022-09-11T06:34:12.320Z,16.6
2022-09-11T06:36:37.473Z,16.6
2022-09-11T06:39:03.518Z,16.7
2022-09-11T06:41:29.639Z,16.6
2022-09-11T06:43:55.709Z,16.7
2022-09-11T06:46:21.833Z,16.7
2022-09-11T06:48:47.937Z,16.7
2022-09-11T06:51:14.037Z,16.7
2022-09-11T06:53:40.122Z,16.8
2022-09-11T06:56:06.184Z,16.8
2022-09-11T06:58:32.304Z,16.8
2022-09-11T07:00:58.373Z,16.8
2022-09-11T07:03:24.461Z,16.8
2022-09-11T07:05:50.561Z,16.8
2022-09-11T07:08:15.666Z,16.8
2022-09-11T07:10:41.794Z,16.8
2022-09-11T07:13:07.885Z,16.8
2022-09-11T07:15:33.965Z,16.9
2022-09-11T07:18:00.060Z,16.9
2022-09-11T07:20:26.140Z,17
2022-09-11T07:22:52.249Z,17
2022-09-11T07:25:18.356Z,17
2022-09-11T07:27:44.683Z,17.1
2022-09-11T07:30:10.602Z,17.1
2022-09-11T07:32:36.622Z,17.2
2022-09-11T07:35:02.721Z,17.2
2022-09-11T07:37:28.823Z,17.2
2022-09-11T07:39:53.926Z,17.3
2022-09-11T07:42:20.034Z,17.4
2022-09-11T07:44:46.131Z,17.5
2022-09-11T07:47:12.235Z,17.7
2022-09-11T07:49:38.347Z,17.7
2022-09-11T07:52:04.420Z,17.9
2022-09-11T07:54:30.648Z,18.1
2022-09-11T07:56:56.606Z,18.1
2022-09-11T07:59:22.687Z,18.3
2022-09-11T08:01:48.783Z,18.2
2022-09-11T08:04:14.942Z,18.2
2022-09-11T08:06:41.003Z,18.2
2022-09-11T08:09:07.085Z,18.4
2022-09-11T08:11:32.178Z,18.5
2022-09-11T08:13:58.294Z,18.6
2022-09-11T08:16:24.376Z,18.4
2022-09-11T08:18:50.501Z,18.5
2022-09-11T08:21:16.583Z,18.5
2022-09-11T08:23:42.663Z,18.4
2022-09-11T08:26:08.759Z,18.3
2022-09-11T08:28:34.850Z,18.3
2022-09-11T08:31:00.951Z,18.2
2022-09-11T08:33:27.082Z,18.3
2022-09-11T08:35:53.200Z,18.3
2022-09-11T08:38:19.225Z,18.3
2022-09-11T08:40:45.320Z,18.5
2022-09-11T08:43:10.465Z,18.7
2022-09-11T08:45:36.542Z,18.9
2022-09-11T08:48:02.630Z,18.9
2022-09-11T08:50:28.722Z,18.8
2022-09-11T08:52:54.809Z,18.8
2022-09-11T08:55:20.963Z,18.6
2022-09-11T08:57:46.998Z,18.5
2022-09-11T09:00:13.094Z,18.4
2022-09-11T09:02:39.186Z,18.4
2022-09-11T09:05:05.291Z,18.4
2022-09-11T09:07:31.386Z,18.4
2022-09-11T09:09:57.488Z,18.4
2022-09-11T09:12:23.572Z,18.5
2022-09-11T09:14:49.662Z,18.6
2022-09-11T09:17:14.786Z,18.7
2022-09-11T09:19:40.887Z,19
2022-09-11T09:22:07.009Z,19.2
2022-09-11T09:24:33.057Z,19.4
2022-09-11T09:26:59.164Z,19.6
2022-09-11T09:29:24.288Z,19.8
2022-09-11T09:31:50.372Z,20.1
2022-09-11T09:34:16.501Z,20.3
2022-09-11T09:36:42.552Z,20.4
2022-09-11T09:39:08.651Z,20.3
2022-09-11T09:41:34.740Z,20.1
2022-09-11T09:44:00.847Z,19.9
2022-09-11T09:46:26.975Z,19.9
2022-09-11T09:48:53.045Z,19.9
2022-09-11T09:51:19.118Z,19.8
2022-09-11T09:53:45.224Z,19.7
2022-09-11T09:56:11.315Z,19.8
2022-09-11T09:58:37.427Z,19.8
2022-09-11T10:01:02.517Z,19.8
2022-09-11T10:03:28.703Z,19.8
2022-09-11T10:05:54.738Z,19.7
2022-09-11T10:08:20.810Z,19.9
2022-09-11T10:10:46.905Z,19.9
2022-09-11T10:13:13.002Z,19.9
2022-09-11T10:15:39.088Z,20
2022-09-11T10:18:05.199Z,20
2022-09-11T10:20:31.314Z,20.2
2022-09-11T10:22:57.397Z,20.2
2022-09-11T10:25:23.474Z,20.3
2022-09-11T10:27:49.590Z,20.5
2022-09-11T10:30:15.669Z,20.8
2022-09-11T10:32:40.790Z,21.1
2022-09-11T10:35:06.882Z,21.3
2022-09-11T10:37:32.985Z,21.2
2022-09-11T10:39:59.076Z,20.6
2022-09-11T10:42:25.210Z,20.6
2022-09-11T10:44:51.269Z,20.4
2022-09-11T10:47:17.353Z,20.7
2022-09-11T10:49:43.460Z,20.8
2022-09-11T10:52:09.545Z,20.9
2022-09-11T10:54:35.642Z,20.9
2022-09-11T10:57:01.735Z,20.9
2022-09-11T10:59:27.827Z,21.3
2022-09-11T11:01:53.924Z,21.3
2022-09-11T11:04:19.054Z,21.3
2022-09-11T11:06:45.142Z,21.4
2022-09-11T11:09:11.235Z,21.4
2022-09-11T11:11:37.328Z,21.4
2022-09-11T11:14:03.437Z,21.6
2022-09-11T11:16:29.513Z,21.5
2022-09-11T11:18:55.622Z,21.2
2022-09-11T11:21:21.700Z,21.1
2022-09-11T11:23:47.822Z,21.4
2022-09-11T11:26:13.908Z,21.6
2022-09-11T11:28:40.009Z,21.7
2022-09-11T11:31:06.096Z,21.7
2022-09-11T11:33:32.201Z,21.7
2022-09-11T11:35:57.300Z,21.5
2022-09-11T11:38:23.436Z,21.3
2022-09-11T11:40:49.495Z,21
2022-09-11T11:43:15.583Z,20.9
2022-09-11T11:45:41.693Z,21
2022-09-11T11:48:07.769Z,21
2022-09-11T11:50:33.869Z,21.2
2022-09-11T11:52:59.979Z,21.1
2022-09-11T11:55:26.077Z,21.3
2022-09-11T11:57:52.179Z,21.6
2022-09-11T12:00:18.264Z,21.7
2022-09-11T12:02:44.343Z,21.8
2022-09-11T12:05:10.441Z,22
2022-09-11T12:07:35.567Z,22
2022-09-11T12:10:01.645Z,22.1
2022-09-11T12:12:27.754Z,22.2
2022-09-11T12:14:53.850Z,22.2
2022-09-11T12:17:19.946Z,22.4
2022-09-11T12:19:46.049Z,22.5
2022-09-11T12:22:12.187Z,22.1
2022-09-11T12:24:38.241Z,22
2022-09-11T12:27:04.326Z,22
2022-09-11T12:29:30.419Z,22
2022-09-11T12:31:56.518Z,22.1
2022-09-11T12:34:22.646Z,22.2
2022-09-11T12:36:48.703Z,22.3
2022-09-11T12:39:13.823Z,22.4
2022-09-11T12:41:39.922Z,22.6
2022-09-11T12:44:06.019Z,22.7
2022-09-11T12:46:32.118Z,22.7
2022-09-11T12:48:58.199Z,22.6
2022-09-11T12:51:24.327Z,22.8
2022-09-11T12:53:50.393Z,22.9
2022-09-11T12:56:16.476Z,23.2
2022-09-11T12:58:42.577Z,23.3
2022-09-11T13:01:08.749Z,23.5
2022-09-11T13:03:34.771Z,23.5
2022-09-11T13:06:00.870Z,23.3
2022-09-11T13:08:26.962Z,23.2
2022-09-11T13:10:52.066Z,23.3
2022-09-11T13:13:18.171Z,23.4
2022-09-11T13:15:44.264Z,23.5
2022-09-11T13:18:10.353Z,23.6
2022-09-11T13:20:36.458Z,23.6
2022-09-11T13:23:02.554Z,23.6
2022-09-11T13:25:28.642Z,23.6
2022-09-11T13:27:54.735Z,23.1
2022-09-11T13:30:20.822Z,22.9
2022-09-11T13:32:46.954Z,22.6
2022-09-11T13:35:13.020Z,22.5
2022-09-11T13:37:39.117Z,22.4
2022-09-11T13:40:05.238Z,22.3
2022-09-11T13:42:30.330Z,22.4
2022-09-11T13:44:56.421Z,22.4
2022-09-11T13:47:22.528Z,22.6
2022-09-11T13:49:48.604Z,22.7
2022-09-11T13:52:14.721Z,22.7
2022-09-11T13:54:40.791Z,22.8
2022-09-11T13:57:06.906Z,22.7
2022-09-11T13:59:33.000Z,22.9
2022-09-11T14:01:59.099Z,23.3
2022-09-11T14:04:25.217Z,23.4
2022-09-11T14:06:51.287Z,24
2022-09-11T14:09:17.380Z,24.9
2022-09-11T14:11:43.738Z,25.4
2022-09-11T14:14:08.609Z,25.9
2022-09-11T14:16:34.698Z,25.3
2022-09-11T14:19:00.776Z,25
2022-09-11T14:21:26.859Z,25.7
2022-09-11T14:23:52.945Z,24.7
2022-09-11T14:26:19.085Z,25.2
2022-09-11T14:28:45.151Z,24.9
2022-09-11T14:31:11.253Z,25.8
2022-09-11T14:33:37.340Z,25.8
2022-09-11T14:36:03.437Z,25.9
2022-09-11T14:38:29.528Z,26.2
2022-09-11T14:40:55.626Z,25.7
2022-09-11T14:43:21.737Z,25.8
2022-09-11T14:45:46.835Z,26
2022-09-11T14:48:12.958Z,26.5
2022-09-11T14:50:39.050Z,25.9
2022-09-11T14:53:05.127Z,25.4
2022-09-11T14:55:31.229Z,25.9
2022-09-11T14:57:57.310Z,26.4
2022-09-11T15:00:23.413Z,26.6
2022-09-11T15:02:49.529Z,26.7
2022-09-11T15:05:15.604Z,25.9
2022-09-11T15:07:41.699Z,26.2
2022-09-11T15:10:07.786Z,26.6
2022-09-11T15:12:33.889Z,26.5
2022-09-11T15:14:59.992Z,26.5
2022-09-11T15:17:25.090Z,26.4
2022-09-11T15:19:51.200Z,26.1
2022-09-11T15:22:17.383Z,26.4
2022-09-11T15:24:43.375Z,26.5
2022-09-11T15:27:09.471Z,26.5
2022-09-11T15:29:35.572Z,26.1
2022-09-11T15:32:01.682Z,26.5
2022-09-11T15:34:27.756Z,26.8
2022-09-11T15:36:53.848Z,27
2022-09-11T15:39:19.946Z,27.2
2022-09-11T15:41:46.033Z,27.3
2022-09-11T15:44:12.136Z,27.2
2022-09-11T15:46:38.246Z,27
2022-09-11T15:49:03.353Z,26.9
2022-09-11T15:51:29.458Z,27
2022-09-11T15:53:55.542Z,27.4
2022-09-11T15:56:21.633Z,27.2
2022-09-11T15:58:47.799Z,26.8
2022-09-11T16:01:13.830Z,25.8
2022-09-11T16:03:39.931Z,25
2022-09-11T16:06:06.024Z,24.3
2022-09-11T16:08:32.117Z,23.9
2022-09-11T16:10:58.218Z,23.7
2022-09-11T16:13:24.309Z,23.6
2022-09-11T16:15:50.392Z,23.4
2022-09-11T16:18:16.487Z,23
2022-09-11T16:20:41.602Z,22.9
2022-09-11T16:23:07.715Z,23.1
2022-09-11T16:25:33.806Z,22.8
2022-09-11T16:27:59.882Z,22.7
2022-09-11T16:30:25.986Z,22.5
2022-09-11T16:32:52.075Z,22.3
2022-09-11T16:35:18.207Z,22
2022-09-11T16:37:44.281Z,21.8
2022-09-11T16:40:10.374Z,21.7
2022-09-11T16:42:36.465Z,21.6
2022-09-11T16:45:02.594Z,21.6
2022-09-11T16:47:28.669Z,21.6
2022-09-11T16:49:54.744Z,21.6
2022-09-11T16:52:19.873Z,21.6
2022-09-11T16:54:45.956Z,21.6
2022-09-11T16:57:12.081Z,21.5
2022-09-11T16:59:38.145Z,21.5
2022-09-11T17:02:04.250Z,21.4
2022-09-11T17:04:30.343Z,21.3
2022-09-11T17:06:56.450Z,21.3
2022-09-11T17:09:22.543Z,21.2
2022-09-11T17:11:48.672Z,21.2
2022-09-11T17:14:14.785Z,21.1
2022-09-11T17:16:40.822Z,21
2022-09-11T17:19:06.906Z,21
2022-09-11T17:21:33.012Z,20.9
2022-09-11T17:23:58.124Z,20.8
2022-09-11T17:26:24.218Z,20.7
2022-09-11T17:28:50.339Z,20.5
2022-09-11T17:31:16.409Z,20.4
2022-09-11T17:33:42.560Z,20.3
2022-09-11T17:36:08.623Z,20.1
2022-09-11T17:38:33.753Z,20
2022-09-11T17:40:59.813Z,19.8
2022-09-11T17:43:25.905Z,19.7
2022-09-11T17:45:52.021Z,19.5
2022-09-11T17:48:18.119Z,19.4
2022-09-11T17:50:44.208Z,19.3
2022-09-11T17:53:10.296Z,19.1
2022-09-11T17:55:36.373Z,19
2022-09-11T17:58:02.485Z,18.8
2022-09-11T18:00:28.611Z,18.7
2022-09-11T18:02:54.686Z,18.6
2022-09-11T18:05:20.769Z,18.5
2022-09-11T18:07:46.934Z,18.4
2022-09-11T18:10:11.979Z,18.3
2022-09-11T18:12:38.080Z,18.3
2022-09-11T18:15:04.175Z,18.2
2022-09-11T18:17:30.272Z,18.1
2022-09-11T18:19:56.355Z,18
2022-09-11T18:22:22.460Z,17.9
2022-09-11T18:24:48.583Z,17.8
2022-09-11T18:27:14.653Z,17.8
2022-09-11T18:29:40.753Z,17.7
2022-09-11T18:32:06.845Z,17.7
2022-09-11T18:34:32.927Z,17.6
2022-09-11T18:36:59.038Z,17.5
2022-09-11T18:39:25.110Z,17.5
2022-09-11T18:41:50.248Z,17.4
2022-09-11T18:44:16.331Z,17.3
2022-09-11T18:46:42.479Z,17.2
2022-09-11T18:49:08.576Z,17.2
2022-09-11T18:51:34.623Z,17.1
2022-09-11T18:54:00.717Z,17.1
2022-09-11T18:56:26.838Z,17
2022-09-11T18:58:52.888Z,17
2022-09-11T19:01:19.045Z,16.9
2022-09-11T19:03:45.084Z,16.9
2022-09-11T19:06:11.223Z,16.8
2022-09-11T19:08:37.276Z,16.8
2022-09-11T19:11:03.379Z,16.7
2022-09-11T19:13:28.509Z,16.6
2022-09-11T19:15:54.575Z,16.6
2022-09-11T19:18:20.667Z,16.5
2022-09-11T19:20:46.772Z,16.4
2022-09-11T19:23:12.842Z,16.3
2022-09-11T19:25:38.943Z,16.2
2022-09-11T19:28:05.053Z,16.1
2022-09-11T19:30:31.145Z,16.1
2022-09-11T19:32:57.233Z,16
2022-09-11T19:35:23.340Z,15.9
2022-09-11T19:37:49.427Z,15.8
2022-09-11T19:40:15.515Z,15.8
2022-09-11T19:42:41.623Z,15.8
2022-09-11T19:45:06.719Z,15.7
2022-09-11T19:47:32.833Z,15.7
2022-09-11T19:49:58.921Z,15.6
2022-09-11T19:52:25.021Z,15.6
2022-09-11T19:54:51.116Z,15.6
2022-09-11T19:57:17.214Z,15.5
2022-09-11T19:59:43.336Z,15.5
2022-09-11T20:02:09.417Z,15.5
2022-09-11T20:04:35.547Z,15.5
2022-09-11T20:07:01.697Z,15.4
2022-09-11T20:09:27.729Z,15.4
2022-09-11T20:11:53.781Z,15.4
2022-09-11T20:14:19.875Z,15.3
2022-09-11T20:16:44.987Z,15.3
2022-09-11T20:19:11.078Z,15.3
2022-09-11T20:21:37.185Z,15.3
2022-09-11T20:24:03.268Z,15.2
2022-09-11T20:26:29.410Z,15.2
2022-09-11T20:28:55.467Z,15.1
2022-09-11T20:31:21.583Z,15.1
2022-09-11T20:33:47.650Z,15.1
2022-09-11T20:36:13.746Z,15.1
2022-09-11T20:38:39.872Z,15
2022-09-11T20:41:05.946Z,15
2022-09-11T20:43:32.021Z,14.9
2022-09-11T20:45:58.176Z,14.9
2022-09-11T20:48:23.240Z,14.9
2022-09-11T20:50:49.337Z,14.8
2022-09-11T20:53:15.496Z,14.8
2022-09-11T20:55:41.522Z,14.7
2022-09-11T20:58:07.614Z,14.6
2022-09-11T21:00:33.715Z,14.5
2022-09-11T21:02:59.809Z,14.5
2022-09-11T21:05:25.912Z,14.5
2022-09-11T21:07:52.010Z,14.4
2022-09-11T21:10:18.092Z,14.4
2022-09-11T21:12:44.183Z,14.4
2022-09-11T21:15:10.279Z,14.4
2022-09-11T21:17:36.367Z,14.4
2022-09-11T21:20:01.477Z,14.4
2022-09-11T21:22:27.580Z,14.4
2022-09-11T21:24:53.666Z,14.4
2022-09-11T21:27:19.773Z,14.4
2022-09-11T21:29:45.864Z,14.3
2022-09-11T21:32:11.990Z,14.3
2022-09-11T21:34:38.095Z,14.3
2022-09-11T21:37:04.163Z,14.2
2022-09-11T21:39:30.281Z,14.2
2022-09-11T21:41:56.347Z,14.2
2022-09-11T21:44:22.441Z,14.2
2022-09-11T21:46:48.525Z,14.2
2022-09-11T21:49:14.635Z,14.2
2022-09-11T21:51:39.746Z,14.1
2022-09-11T21:54:05.833Z,14
2022-09-11T21:56:31.937Z,14
2022-09-11T21:58:58.070Z,14
2022-09-11T22:01:24.165Z,13.9
2022-09-11T22:03:50.238Z,13.9
2022-09-11T22:06:16.311Z,13.9
2022-09-11T22:08:42.408Z,13.9
2022-09-11T22:11:08.511Z,13.8
2022-09-11T22:13:34.647Z,13.8
2022-09-11T22:16:00.677Z,13.8
2022-09-11T22:18:26.789Z,13.7
2022-09-11T22:20:52.882Z,13.8
2022-09-11T22:23:17.987Z,13.8
2022-09-11T22:25:44.103Z,13.7
2022-09-11T22:28:10.192Z,13.6
2022-09-11T22:30:36.284Z,13.6
2022-09-11T22:33:02.372Z,13.6
2022-09-11T22:35:28.478Z,13.5
2022-09-11T22:37:54.568Z,13.4
2022-09-11T22:40:20.666Z,13.4
2022-09-11T22:42:46.761Z,13.4
2022-09-11T22:45:12.860Z,13.4
2022-09-11T22:47:38.965Z,13.3
2022-09-11T22:50:05.062Z,13.2
2022-09-11T22:52:31.142Z,13.3
2022-09-11T22:54:56.264Z,13.2
2022-09-11T22:57:22.347Z,13.2
2022-09-11T22:59:48.445Z,13.2
2022-09-11T23:02:14.560Z,13.1
2022-09-11T23:04:40.642Z,13.1
2022-09-11T23:07:06.740Z,13.1
2022-09-11T23:09:32.838Z,13.1
2022-09-11T23:11:58.955Z,13.1
2022-09-11T23:14:25.036Z,13.1
2022-09-11T23:16:51.117Z,13.1
2022-09-11T23:21:43.321Z,13.1
2022-09-11T23:24:09.448Z,13.1
2022-09-11T23:26:34.576Z,13
2022-09-11T23:29:00.638Z,13
2022-09-11T23:31:26.722Z,13
2022-09-11T23:33:52.822Z,13
2022-09-11T23:36:18.912Z,13
2022-09-11T23:38:45.000Z,12.9
2022-09-11T23:41:11.106Z,12.8
2022-09-11T23:43:37.220Z,12.8
2022-09-11T23:46:03.303Z,12.8
2022-09-11T23:48:29.410Z,12.8
2022-09-11T23:50:55.481Z,12.8
2022-09-11T23:53:21.589Z,12.8
2022-09-11T23:55:47.680Z,12.8
2022-09-11T23:58:12.815Z,12.9
